Terminal Aerodrome Forecast
Issued by NWS

Home | Current Version | Previous Version | Text Only | Print | Product List | Glossary On
Versions: 1 2 3 4 5 6 7 8 9 10 11 12 13 14 15
000
FTUS45 KRIW 272300
TAFBPI
TAF
KBPI 272329Z 2800/2824 VRB04KT P6SM SCT035 BKN045
     FM280800 15006KT P6SM VCSH SCT020 BKN035
     FM281800 14008KT P6SM SCT020 BKN035=

USA.gov is the U.S. government's official web portal to all federal, state and local government web resources and services.